Strona główna
METAR-TAF:

METAR-TAF

Lotnisko :

Sussex Airport

Sussex, New Jersey, Stany Zjednoczone

Szerokość geograficzna: 41-12-01N, Długość geograficzna: 074-37-23W, wysokość: 128 m

Aktualna obserwacja pogody

Raport powstał 1 godzina i 2 minut temu, godzina 20:53 UTC
Wiatr 10 kt od północny wschód
Temperatura 3°C
Wilgotność 93%
Ciśnienie 1011 hPa
Widzialność: 11.3 km
Zachmurzenie całkowite na wysokości 700 ft
słaby deszcz

METAR: KFWN 162053Z AUTO 04010KT 7SM -RA OVC007 03/02 A2985 RMK AO2 SLP111 P0004 60016 T00280017 56013

czas: 16:55 (21:55 UTC)


TAF: brakujący

Obserwacja i prognoza pogody dla ponad 4000 lotnisk (raport METAR i TAF).

Dostępne stacje oznaczono żółtymi i czerwonymi punktami na mapie.

Najedź kursorem aby zobaczyć nazwę stacji.

Kliknij aby zobaczyć obserwacje i prognozy pogody.

Aby zmienić mapę: kliknij na zielony przycisk z czarnym krzyżykiem, aby powiększyć; na zielony przycisk z myślnikiem, aby pomniejszyć; na zielone strzałki, aby przejść do map sąsiednich.


METAR-TAF: